Check out our new BloomSky Weather System.

Active alerts


No alerts


Thunder radar  blitzortung!


Rain radar more information rain snow radar


Visit our other weather sites:

Template documentation
and downloads

And another site



Weather Underground History page Text

Daily Summary for April 22, 2017 Units:  Metric    English   Both
« Previous Day
Next Day »
Daily Weekly Monthly Yearly Custom
  High: Low: Average:
Temperature: 27.7 °C 15.8 °C 21.1 °C
Dew Point: 23.4 °C 10.3 °C 18.1 °C
Humidity: 97 % 70 % 83 %
Wind Speed: 20.9 km/h 0 km/h 6.8 km/h
Wind Gust: 35.4 km/h - -
Wind:- - West
Pressure: 1018.2 hPa 1009 hPa -
Precipitation: 0 mm    
Historical Graphs
 
 
Tabular Data for April 22, 2017
Time Temperature Dew Point Pressure Wind Wind Speed Wind Gust Humidity Rainfall Rate (Hourly)
00:02 23.3 °C 21.6 °C 1009.7 hPa SSE 3.2 km/h 14.5 km/h 90 % 0 mm
00:07 23.3 °C 21.6 °C 1009.7 hPa SSE 9.7 km/h 14.5 km/h 90 % 0 mm
00:12 23.3 °C 21.7 °C 1009.7 hPa East 8 km/h 14.5 km/h 91 % 0 mm
00:18 23.2 °C 21.6 °C 1009.4 hPa SSE 9.7 km/h 12.9 km/h 91 % 0 mm
00:23 23.2 °C 21.6 °C 1009.4 hPa SSE 9.7 km/h 12.9 km/h 91 % 0 mm
00:27 23.2 °C 21.6 °C 1009.4 hPa SSE 4.8 km/h 12.9 km/h 91 % 0 mm
00:32 23.1 °C 21.5 °C 1009.4 hPa SSE 3.2 km/h 12.9 km/h 91 % 0 mm
00:38 23.1 °C 21.5 °C 1009.4 hPa SE 6.4 km/h 12.9 km/h 91 % 0 mm
00:43 23 °C 21.4 °C 1009.4 hPa SSE 4.8 km/h 14.5 km/h 91 % 0 mm
00:48 23 °C 21.4 °C 1009.4 hPa SSE 8 km/h 14.5 km/h 91 % 0 mm
00:52 22.9 °C 21.4 °C 1009.4 hPa South 8 km/h 14.5 km/h 91 % 0 mm
00:58 22.9 °C 21.5 °C 1009.4 hPa South 9.7 km/h 11.3 km/h 92 % 0 mm
01:02 22.9 °C 21.5 °C 1009.4 hPa SSE 3.2 km/h 11.3 km/h 92 % 0 mm
01:07 22.9 °C 21.5 °C 1009.4 hPa SSE 6.4 km/h 14.5 km/h 92 % 0 mm
01:12 22.9 °C 21.5 °C 1009.4 hPa SE 6.4 km/h 16.1 km/h 92 % 0 mm
01:18 22.8 °C 21.4 °C 1009.4 hPa SE 3.2 km/h 16.1 km/h 92 % 0 mm
01:23 22.8 °C 21.4 °C 1009.4 hPa SSE 8 km/h 16.1 km/h 92 % 0 mm
01:28 22.8 °C 21.4 °C 1009 hPa SE 9.7 km/h 14.5 km/h 92 % 0 mm
01:33 22.8 °C 21.4 °C 1009.4 hPa ESE 6.4 km/h 14.5 km/h 92 % 0 mm
01:38 22.8 °C 21.4 °C 1009.4 hPa South 6.4 km/h 14.5 km/h 92 % 0 mm
01:43 22.8 °C 21.4 °C 1009.4 hPa South 3.2 km/h 12.9 km/h 92 % 0 mm
01:48 22.8 °C 21.4 °C 1009.4 hPa SSE 8 km/h 12.9 km/h 92 % 0 mm
01:53 22.8 °C 21.6 °C 1009.4 hPa SSE 3.2 km/h 12.9 km/h 93 % 0 mm
01:58 22.7 °C 21.5 °C 1009.4 hPa South 3.2 km/h 11.3 km/h 93 % 0 mm
02:03 22.7 °C 21.5 °C 1009.4 hPa SSW 3.2 km/h 11.3 km/h 93 % 0 mm
02:08 22.7 °C 21.5 °C 1009.4 hPa South 3.2 km/h 11.3 km/h 93 % 0 mm
02:13 22.6 °C 21.4 °C 1009.4 hPa SSW 4.8 km/h 9.7 km/h 93 % 0 mm
02:18 22.6 °C 21.4 °C 1009.4 hPa SSE 3.2 km/h 9.7 km/h 93 % 0 mm
02:22 22.6 °C 21.4 °C 1009.4 hPa SSW 3.2 km/h 8 km/h 93 % 0 mm
02:27 22.6 °C 21.4 °C 1009.4 hPa SSE 3.2 km/h 8 km/h 93 % 0 mm
02:32 22.6 °C 21.4 °C 1009.4 hPa ESE 4.8 km/h 6.4 km/h 93 % 0 mm
02:37 22.5 °C 21.3 °C 1009.4 hPa SE 1.6 km/h 9.7 km/h 93 % 0 mm
02:42 22.4 °C 21.2 °C 1009.4 hPa Calm   9.7 km/h 93 % 0 mm
02:47 22.4 °C 21.4 °C 1009.4 hPa Calm   9.7 km/h 94 % 0 mm
02:52 22.3 °C 21.3 °C 1009.4 hPa South 3.2 km/h 6.4 km/h 94 % 0 mm
02:57 22.3 °C 21.3 °C 1009.4 hPa Calm   6.4 km/h 94 % 0 mm
03:02 22.2 °C 21.2 °C 1009.7 hPa Calm   3.2 km/h 94 % 0 mm
03:07 22 °C 21 °C 1009.7 hPa Calm   3.2 km/h 94 % 0 mm
03:12 21.9 °C 20.9 °C 1009.7 hPa Calm   1.6 km/h 94 % 0 mm
03:17 21.8 °C 20.8 °C 1009.7 hPa Calm     94 % 0 mm
03:23 21.6 °C 20.6 °C 1009.7 hPa Calm     94 % 0 mm
03:27 21.4 °C 20.4 °C 1009.7 hPa Calm     94 % 0 mm
03:32 21.5 °C 20.7 °C 1009.7 hPa Calm     95 % 0 mm
03:37 21.5 °C 20.7 °C 1009.4 hPa Calm     95 % 0 mm
03:42 21.4 °C 20.6 °C 1009.4 hPa Calm     95 % 0 mm
03:47 21.3 °C 20.5 °C 1009.4 hPa Calm     95 % 0 mm
03:53 21.3 °C 20.5 °C 1009.4 hPa Calm   1.6 km/h 95 % 0 mm
03:58 21.3 °C 20.5 °C 1009.4 hPa Calm   1.6 km/h 95 % 0 mm
04:03 21.2 °C 20.4 °C 1009.4 hPa South 1.6 km/h 1.6 km/h 95 % 0 mm
04:08 21.2 °C 20.5 °C 1009.4 hPa SSE 3.2 km/h 3.2 km/h 96 % 0 mm
04:13 21.3 °C 20.6 °C 1009.4 hPa Calm   3.2 km/h 96 % 0 mm
04:18 21.4 °C 20.7 °C 1009.4 hPa South 3.2 km/h 3.2 km/h 96 % 0 mm
04:23 21.4 °C 20.7 °C 1009.4 hPa SSE 3.2 km/h 4.8 km/h 96 % 0 mm
04:27 21.4 °C 20.7 °C 1009.4 hPa Calm   4.8 km/h 96 % 0 mm
04:32 21.3 °C 20.6 °C 1009.7 hPa Calm   4.8 km/h 96 % 0 mm
04:37 21.3 °C 20.8 °C 1009.7 hPa Calm   3.2 km/h 97 % 0 mm
04:42 21.4 °C 20.9 °C 1010 hPa WNW 1.6 km/h 1.6 km/h 97 % 0 mm
04:47 21.4 °C 20.9 °C 1010 hPa Calm   3.2 km/h 97 % 0 mm
04:52 21.4 °C 20.7 °C 1010 hPa Calm   3.2 km/h 96 % 0 mm
04:57 21.4 °C 20.9 °C 1010.4 hPa Calm   3.2 km/h 97 % 0 mm
04:59 21.4 °C 20.9 °C 1010.4 hPa Calm   3.2 km/h 97 % 0 mm
05:04 21.4 °C 20.7 °C 1010.4 hPa Calm   1.6 km/h 96 % 0 mm
05:09 21.3 °C 20.6 °C 1010.4 hPa Calm   1.6 km/h 96 % 0 mm
05:14 21.3 °C 20.8 °C 1010.4 hPa Calm   1.6 km/h 97 % 0 mm
05:19 21.3 °C 20.8 °C 1010.4 hPa Calm     97 % 0 mm
05:24 21.2 °C 20.5 °C 1010.7 hPa Calm     96 % 0 mm
05:29 21.2 °C 20.7 °C 1010.7 hPa Calm     97 % 0 mm
05:34 21.2 °C 20.7 °C 1010.7 hPa Calm   1.6 km/h 97 % 0 mm
05:40 21.2 °C 20.7 °C 1010.7 hPa Calm   1.6 km/h 97 % 0 mm
05:41 21.2 °C 20.7 °C 1010.7 hPa Calm   1.6 km/h 97 % 0 mm
05:45 21.1 °C 20.6 °C 1010.7 hPa Calm     97 % 0 mm
05:50 21.2 °C 20.7 °C 1010.7 hPa Calm     97 % 0 mm
05:55 21.3 °C 20.8 °C 1010.7 hPa Calm   3.2 km/h 97 % 0 mm
06:00 21.3 °C 20.8 °C 1010.7 hPa SSW 1.6 km/h 3.2 km/h 97 % 0 mm
06:05 21.5 °C 21 °C 1010.7 hPa SSE 1.6 km/h 3.2 km/h 97 % 0 mm
06:06 21.5 °C 21 °C 1010.7 hPa SSE 1.6 km/h 3.2 km/h 97 % 0 mm
06:11 21.6 °C 21.1 °C 1010.7 hPa South 3.2 km/h 4.8 km/h 97 % 0 mm
06:16 21.6 °C 21.1 °C 1010.7 hPa Calm   4.8 km/h 97 % 0 mm
06:21 21.6 °C 21.1 °C 1010.7 hPa SSE 1.6 km/h 4.8 km/h 97 % 0 mm
06:26 21.7 °C 21.2 °C 1010.7 hPa Calm   4.8 km/h 97 % 0 mm
06:31 21.6 °C 21.1 °C 1010.7 hPa Calm   3.2 km/h 97 % 0 mm
06:32 21.6 °C 21.1 °C 1010.7 hPa SSE 1.6 km/h 3.2 km/h 97 % 0 mm
06:37 21.6 °C 21.1 °C 1011.1 hPa Calm   3.2 km/h 97 % 0 mm
06:42 21.5 °C 21 °C 1011.1 hPa Calm   1.6 km/h 97 % 0 mm
06:47 21.5 °C 21 °C 1011.1 hPa South 3.2 km/h 3.2 km/h 97 % 0 mm
06:52 21.5 °C 21 °C 1011.1 hPa SSW 1.6 km/h 3.2 km/h 97 % 0 mm
06:57 21.5 °C 21 °C 1011.1 hPa South 3.2 km/h 6.4 km/h 97 % 0 mm
07:02 21.6 °C 21.1 °C 1011.1 hPa SSW 1.6 km/h 6.4 km/h 97 % 0 mm
07:07 21.6 °C 21.1 °C 1011.1 hPa South 4.8 km/h 6.4 km/h 97 % 0 mm
07:12 21.7 °C 21.2 °C 1011.1 hPa SSW 4.8 km/h 8 km/h 97 % 0 mm
07:17 21.7 °C 21.2 °C 1011.1 hPa South 4.8 km/h 9.7 km/h 97 % 0 mm
07:22 21.8 °C 21.3 °C 1011.1 hPa SSW 4.8 km/h 9.7 km/h 97 % 0 mm
07:27 21.8 °C 21.3 °C 1011.1 hPa South 1.6 km/h 9.7 km/h 97 % 0 mm
07:32 21.9 °C 21.4 °C 1011.1 hPa SE 1.6 km/h 8 km/h 97 % 0 mm
07:37 21.9 °C 21.4 °C 1011.1 hPa South 4.8 km/h 8 km/h 97 % 0 mm
07:42 22.1 °C 21.6 °C 1011.1 hPa SSE 4.8 km/h 8 km/h 97 % 0 mm
07:47 22.3 °C 21.8 °C 1011.4 hPa Calm   8 km/h 97 % 0 mm
07:52 22.4 °C 21.9 °C 1011.4 hPa Calm   11.3 km/h 97 % 0 mm
07:57 22.7 °C 22.2 °C 1011.7 hPa Calm   11.3 km/h 97 % 0 mm
08:02 22.9 °C 22.2 °C 1011.7 hPa Calm   11.3 km/h 96 % 0 mm
08:07 23.2 °C 22.5 °C 1011.7 hPa Calm   8 km/h 96 % 0 mm
08:12 23.3 °C 22.5 °C 1011.7 hPa Calm   6.4 km/h 95 % 0 mm
08:17 23.6 °C 22.8 °C 1011.7 hPa Calm   6.4 km/h 95 % 0 mm
08:22 23.8 °C 22.8 °C 1011.7 hPa SW 1.6 km/h 6.4 km/h 94 % 0 mm
08:27 23.9 °C 22.7 °C 1012.1 hPa SW 3.2 km/h 8 km/h 93 % 0 mm
08:32 24.2 °C 22.8 °C 1012.1 hPa SSW 3.2 km/h 9.7 km/h 92 % 0 mm
08:37 24.6 °C 23.4 °C 1012.1 hPa SW 3.2 km/h 11.3 km/h 93 % 0 mm
08:42 24.7 °C 22.9 °C 1012.1 hPa SW 3.2 km/h 11.3 km/h 90 % 0 mm
08:47 24.4 °C 22.5 °C 1012.4 hPa SW 3.2 km/h 11.3 km/h 89 % 0 mm
08:52 24.2 °C 22.3 °C 1012.4 hPa South 3.2 km/h 11.3 km/h 89 % 0 mm
08:57 24.1 °C 22.4 °C 1012.4 hPa Calm   11.3 km/h 90 % 0 mm
09:02 24.3 °C 22.6 °C 1012.4 hPa Calm   11.3 km/h 90 % 0 mm
09:07 24.4 °C 22.7 °C 1012.4 hPa WSW 4.8 km/h 4.8 km/h 90 % 0 mm
09:12 24.6 °C 22.7 °C 1012.4 hPa WSW 1.6 km/h 4.8 km/h 89 % 0 mm
09:17 24.5 °C 22.6 °C 1012.4 hPa WNW 3.2 km/h 4.8 km/h 89 % 0 mm
09:22 24.7 °C 22.8 °C 1012.4 hPa SSE 1.6 km/h 4.8 km/h 89 % 0 mm
09:27 24.9 °C 22.8 °C 1012.4 hPa WNW 3.2 km/h 4.8 km/h 88 % 0 mm
09:32 25.3 °C 23 °C 1012.4 hPa SSW 4.8 km/h 6.4 km/h 87 % 0 mm
09:37 25.6 °C 23.1 °C 1012.4 hPa SSE 4.8 km/h 9.7 km/h 86 % 0 mm
09:42 25.9 °C 23.2 °C 1012.4 hPa NNW 6.4 km/h 9.7 km/h 85 % 0 mm
09:47 25.9 °C 22.6 °C 1012.4 hPa SW 1.6 km/h 9.7 km/h 82 % 0 mm
09:52 25.9 °C 22.6 °C 1012.4 hPa Calm   9.7 km/h 82 % 0 mm
09:57 26.1 °C 22.6 °C 1012.4 hPa ENE 4.8 km/h 11.3 km/h 81 % 0 mm
10:02 26.3 °C 22.6 °C 1012.4 hPa Calm   11.3 km/h 80 % 0 mm
10:07 26.3 °C 22.6 °C 1012.4 hPa Calm   11.3 km/h 80 % 0 mm
10:12 26.1 °C 22.4 °C 1012.4 hPa South 1.6 km/h 11.3 km/h 80 % 0 mm
10:17 26.3 °C 22.4 °C 1012.4 hPa WNW 6.4 km/h 11.3 km/h 79 % 0 mm
10:22 26.3 °C 22.4 °C 1012.4 hPa NE 3.2 km/h 11.3 km/h 79 % 0 mm
10:27 26.3 °C 22.4 °C 1012.8 hPa ENE 3.2 km/h 8 km/h 79 % 0 mm
10:32 26.3 °C 22.2 °C 1012.8 hPa West 3.2 km/h 8 km/h 78 % 0 mm
10:38 26.3 °C 22.4 °C 1012.8 hPa Calm   9.7 km/h 79 % 0 mm
10:43 26.8 °C 23.3 °C 1012.8 hPa Calm   9.7 km/h 81 % 0 mm
10:48 27.1 °C 22.5 °C 1012.8 hPa SW 1.6 km/h 11.3 km/h 76 % 0 mm
10:53 26.9 °C 22.3 °C 1012.8 hPa WSW 6.4 km/h 11.3 km/h 76 % 0 mm
10:58 26.8 °C 22.4 °C 1012.8 hPa SW 3.2 km/h 11.3 km/h 77 % 0 mm
11:02 26.9 °C 22.3 °C 1012.8 hPa SW 3.2 km/h 8 km/h 76 % 0 mm
11:07 27.1 °C 22.5 °C 1012.8 hPa Calm   8 km/h 76 % 0 mm
11:12 27.7 °C 22.6 °C 1012.8 hPa NW 11.3 km/h 11.3 km/h 74 % 0 mm
11:18 25.9 °C 20.5 °C 1013.1 hPa North 19.3 km/h 19.3 km/h 72 % 0 mm
11:23 24.3 °C 20.2 °C 1013.4 hPa NNW 11.3 km/h 24.1 km/h 78 % 0 mm
11:28 23.8 °C 20.1 °C 1013.4 hPa NW 14.5 km/h 24.1 km/h 80 % 0 mm
11:33 22.9 °C 19.7 °C 1013.4 hPa NW 11.3 km/h 24.1 km/h 82 % 0 mm
11:38 22.1 °C 19.3 °C 1013.4 hPa NW 11.3 km/h 22.5 km/h 84 % 0 mm
11:43 21.4 °C 18.8 °C 1013.4 hPa NW 14.5 km/h 22.5 km/h 85 % 0 mm
11:48 20.8 °C 18.4 °C 1013.8 hPa WNW 17.7 km/h 22.5 km/h 86 % 0 mm
11:53 20.6 °C 18.4 °C 1013.8 hPa WNW 11.3 km/h 22.5 km/h 87 % 0 mm
11:58 20.6 °C 18.4 °C 1013.8 hPa WNW 11.3 km/h 24.1 km/h 87 % 0 mm
12:03 20.6 °C 18.4 °C 1013.8 hPa NNW 9.7 km/h 24.1 km/h 87 % 0 mm
12:08 20.8 °C 18.4 °C 1013.8 hPa WNW 17.7 km/h 24.1 km/h 86 % 0 mm
12:13 21 °C 18.6 °C 1013.8 hPa WNW 12.9 km/h 24.1 km/h 86 % 0 mm
12:18 21.6 °C 19 °C 1013.8 hPa WNW 6.4 km/h 24.1 km/h 85 % 0 mm
12:20 21.8 °C 19 °C 1013.8 hPa NW 11.3 km/h 24.1 km/h 84 % 0 mm
12:25 21.6 °C 18.8 °C 1014.1 hPa NNW 9.7 km/h 24.1 km/h 84 % 0 mm
12:30 21.7 °C 18.9 °C 1014.1 hPa NW 8 km/h 19.3 km/h 84 % 0 mm
12:35 21.7 °C 18.7 °C 1014.1 hPa WNW 9.7 km/h 19.3 km/h 83 % 0 mm
12:41 22.2 °C 18.8 °C 1013.8 hPa North 8 km/h 19.3 km/h 81 % 0 mm
12:46 21.9 °C 18.5 °C 1013.8 hPa NW 9.7 km/h 19.3 km/h 81 % 0 mm
12:51 21.6 °C 18.4 °C 1014.1 hPa NW 9.7 km/h 17.7 km/h 82 % 0 mm
12:56 21.5 °C 18.3 °C 1013.8 hPa NNW 4.8 km/h 19.3 km/h 82 % 0 mm
13:01 21.8 °C 18.4 °C 1013.8 hPa WNW 11.3 km/h 19.3 km/h 81 % 0 mm
13:06 22.2 °C 18.6 °C 1013.8 hPa North 6.4 km/h 20.9 km/h 80 % 0 mm
13:11 22.3 °C 18.7 °C 1013.8 hPa West 12.9 km/h 20.9 km/h 80 % 0 mm
13:16 22.4 °C 18.4 °C 1013.8 hPa WNW 9.7 km/h 20.9 km/h 78 % 0 mm
13:21 22.4 °C 18.6 °C 1013.8 hPa West 3.2 km/h 22.5 km/h 79 % 0 mm
13:26 22.6 °C 18.4 °C 1013.8 hPa NNW 6.4 km/h 22.5 km/h 77 % 0 mm
13:31 22.4 °C 18.2 °C 1013.8 hPa NW 9.7 km/h 22.5 km/h 77 % 0 mm
13:36 22.4 °C 18.4 °C 1013.8 hPa NW 8 km/h 24.1 km/h 78 % 0 mm
13:41 22.4 °C 18.2 °C 1013.8 hPa NNW 12.9 km/h 24.1 km/h 77 % 0 mm
13:46 22 °C 17.8 °C 1013.8 hPa NNW 8 km/h 24.1 km/h 77 % 0 mm
13:51 21.9 °C 17.9 °C 1013.8 hPa NNW 9.7 km/h 19.3 km/h 78 % 0 mm
13:56 22 °C 18.2 °C 1013.8 hPa NNW 16.1 km/h 19.3 km/h 79 % 0 mm
14:01 21.8 °C 17.8 °C 1013.8 hPa NNW 16.1 km/h 22.5 km/h 78 % 0 mm
14:06 21.8 °C 18 °C 1013.8 hPa NW 9.7 km/h 22.5 km/h 79 % 0 mm
14:11 21.7 °C 17.9 °C 1013.8 hPa NNW 11.3 km/h 22.5 km/h 79 % 0 mm
14:16 21.9 °C 17.9 °C 1013.8 hPa WNW 4.8 km/h 19.3 km/h 78 % 0 mm
14:21 21.9 °C 17.7 °C 1013.8 hPa North 12.9 km/h 20.9 km/h 77 % 0 mm
14:26 21.7 °C 17.7 °C 1013.8 hPa WNW 12.9 km/h 20.9 km/h 78 % 0 mm
14:31 21.5 °C 17.3 °C 1013.8 hPa WSW 8 km/h 22.5 km/h 77 % 0 mm
14:36 21.7 °C 17.7 °C 1013.8 hPa NNW 9.7 km/h 22.5 km/h 78 % 0 mm
14:41 21.9 °C 17.9 °C 1013.8 hPa NNW 14.5 km/h 22.5 km/h 78 % 0 mm
14:47 21.9 °C 17.5 °C 1013.8 hPa West 8 km/h 22.5 km/h 76 % 0 mm
14:52 21.6 °C 17.4 °C 1013.8 hPa NNW 14.5 km/h 22.5 km/h 77 % 0 mm
14:57 21.6 °C 17.2 °C 1013.8 hPa NW 11.3 km/h 22.5 km/h 76 % 0 mm
15:02 21.7 °C 17.7 °C 1013.8 hPa NNE 16.1 km/h 24.1 km/h 78 % 0 mm
15:07 22.2 °C 17.8 °C 1013.8 hPa WNW 6.4 km/h 24.1 km/h 76 % 0 mm
15:12 22.1 °C 17.5 °C 1013.8 hPa North 1.6 km/h 24.1 km/h 75 % 0 mm
15:17 22.2 °C 17.3 °C 1013.8 hPa West 6.4 km/h 20.9 km/h 74 % 0 mm
15:22 21.8 °C 17 °C 1013.8 hPa NNW 16.1 km/h 20.9 km/h 74 % 0 mm
15:27 21.8 °C 17 °C 1013.8 hPa NNW 9.7 km/h 19.3 km/h 74 % 0 mm
15:32 21.9 °C 17.1 °C 1013.8 hPa NW 9.7 km/h 20.9 km/h 74 % 0 mm
15:37 21.7 °C 17.1 °C 1013.8 hPa NNW 4.8 km/h 20.9 km/h 75 % 0 mm
15:42 21.5 °C 16.7 °C 1013.8 hPa WNW 12.9 km/h 22.5 km/h 74 % 0 mm
15:47 21.4 °C 16.8 °C 1013.8 hPa NNW 16.1 km/h 22.5 km/h 75 % 0 mm
15:52 21.2 °C 16.6 °C 1013.8 hPa West 8 km/h 22.5 km/h 75 % 0 mm
15:57 21.2 °C 16.6 °C 1013.8 hPa NNW 11.3 km/h 22.5 km/h 75 % 0 mm
16:02 21.2 °C 16.6 °C 1013.8 hPa NNW 16.1 km/h 22.5 km/h 75 % 0 mm
16:07 21.3 °C 16.5 °C 1013.8 hPa NW 14.5 km/h 22.5 km/h 74 % 0 mm
16:12 21.2 °C 16.4 °C 1013.8 hPa NW 8 km/h 24.1 km/h 74 % 0 mm
16:17 21.1 °C 16.5 °C 1013.8 hPa NNW 6.4 km/h 24.1 km/h 75 % 0 mm
16:22 20.8 °C 16.2 °C 1013.8 hPa North 19.3 km/h 24.1 km/h 75 % 0 mm
16:27 20.7 °C 16.1 °C 1013.8 hPa NNE 8 km/h 24.1 km/h 75 % 0 mm
16:32 20.4 °C 15.8 °C 1013.8 hPa NNW 9.7 km/h 24.1 km/h 75 % 0 mm
16:37 20.5 °C 15.9 °C 1013.8 hPa North 12.9 km/h 24.1 km/h 75 % 0 mm
16:42 20.5 °C 15.7 °C 1013.8 hPa North 14.5 km/h 24.1 km/h 74 % 0 mm
16:47 20.1 °C 15.5 °C 1013.8 hPa NNW 16.1 km/h 27.4 km/h 75 % 0 mm
16:52 19.9 °C 15.5 °C 1013.8 hPa NW 8 km/h 27.4 km/h 76 % 0 mm
16:57 20 °C 15.4 °C 1013.8 hPa NNW 11.3 km/h 27.4 km/h 75 % 0 mm
17:02 20.2 °C 15.6 °C 1013.8 hPa NW 12.9 km/h 24.1 km/h 75 % 0 mm
17:07 20.2 °C 15.2 °C 1013.8 hPa NNW 8 km/h 25.7 km/h 73 % 0 mm
17:12 20.1 °C 15.5 °C 1013.8 hPa NW 16.1 km/h 25.7 km/h 75 % 0 mm
17:17 19.8 °C 15.2 °C 1014.1 hPa NNW 9.7 km/h 25.7 km/h 75 % 0 mm
17:22 19.7 °C 14.9 °C 1014.1 hPa NW 11.3 km/h 25.7 km/h 74 % 0 mm
17:27 19.7 °C 15.1 °C 1014.1 hPa NNW 20.9 km/h 25.7 km/h 75 % 0 mm
17:32 19.6 °C 14.8 °C 1014.1 hPa North 12.9 km/h 24.1 km/h 74 % 0 mm
17:37 19.5 °C 14.9 °C 1014.1 hPa SW 9.7 km/h 24.1 km/h 75 % 0 mm
17:42 19.6 °C 14.6 °C 1014.4 hPa NW 16.1 km/h 24.1 km/h 73 % 0 mm
17:47 19.3 °C 14.5 °C 1014.4 hPa WNW 6.4 km/h 24.1 km/h 74 % 0 mm
17:52 19.2 °C 14.5 °C 1014.4 hPa NNW 19.3 km/h 24.1 km/h 74 % 0 mm
17:57 19.3 °C 14.5 °C 1014.1 hPa NNW 12.9 km/h 24.1 km/h 74 % 0 mm
18:02 19.6 °C 14.6 °C 1014.4 hPa NW 11.3 km/h 24.1 km/h 73 % 0 mm
18:07 19.5 °C 14.5 °C 1014.4 hPa NNW 11.3 km/h 22.5 km/h 73 % 0 mm
18:12 19.7 °C 14.9 °C 1014.1 hPa SSW 4.8 km/h 20.9 km/h 74 % 0 mm
18:17 19.6 °C 14.4 °C 1014.1 hPa WNW 11.3 km/h 19.3 km/h 72 % 0 mm
18:22 19.3 °C 14.1 °C 1014.4 hPa NW 8 km/h 25.7 km/h 72 % 0 mm
18:27 19.3 °C 14.1 °C 1014.4 hPa NNW 6.4 km/h 25.7 km/h 72 % 0 mm
18:32 19.3 °C 14.1 °C 1014.1 hPa NW 14.5 km/h 25.7 km/h 72 % 0 mm
18:37 19.3 °C 14.1 °C 1014.4 hPa NNE 17.7 km/h 24.1 km/h 72 % 0 mm
18:42 19.3 °C 14.1 °C 1014.4 hPa NNW 11.3 km/h 24.1 km/h 72 % 0 mm
18:47 19.3 °C 13.9 °C 1014.4 hPa North 19.3 km/h 22.5 km/h 71 % 0 mm
18:52 19.2 °C 14 °C 1014.4 hPa NW 9.7 km/h 27.4 km/h 72 % 0 mm
18:57 19.2 °C 13.8 °C 1014.4 hPa NW 16.1 km/h 27.4 km/h 71 % 0 mm
19:02 19.2 °C 13.6 °C 1014.8 hPa NW 6.4 km/h 27.4 km/h 70 % 0 mm
19:07 19.1 °C 13.7 °C 1014.8 hPa NNW 16.1 km/h 25.7 km/h 71 % 0 mm
19:12 19 °C 13.6 °C 1015.1 hPa NW 4.8 km/h 25.7 km/h 71 % 0 mm
19:17 19 °C 13.8 °C 1015.1 hPa NW 14.5 km/h 24.1 km/h 72 % 0 mm
19:22 18.9 °C 13.7 °C 1015.1 hPa WNW 4.8 km/h 24.1 km/h 72 % 0 mm
19:27 18.8 °C 13.6 °C 1015.1 hPa NW 4.8 km/h 17.7 km/h 72 % 0 mm
19:32 18.8 °C 13.6 °C 1015.1 hPa WSW 1.6 km/h 17.7 km/h 72 % 0 mm
19:37 18.6 °C 13.2 °C 1015.1 hPa NW 6.4 km/h 17.7 km/h 71 % 0 mm
19:42 18.5 °C 13.1 °C 1015.1 hPa NW 11.3 km/h 22.5 km/h 71 % 0 mm
19:47 18.4 °C 13.3 °C 1015.1 hPa NNW 4.8 km/h 22.5 km/h 72 % 0 mm
19:52 18.3 °C 13.2 °C 1015.1 hPa NW 6.4 km/h 22.5 km/h 72 % 0 mm
19:57 18.2 °C 13.1 °C 1015.1 hPa WNW 8 km/h 20.9 km/h 72 % 0 mm
20:02 17.9 °C 12.6 °C 1015.5 hPa NW 9.7 km/h 22.5 km/h 71 % 0 mm
20:07 17.7 °C 12.6 °C 1015.5 hPa West 9.7 km/h 24.1 km/h 72 % 0 mm
20:12 17.5 °C 12.6 °C 1015.5 hPa South 9.7 km/h 25.7 km/h 73 % 0 mm
20:17 17.4 °C 12.5 °C 1015.5 hPa NNW 6.4 km/h 25.7 km/h 73 % 0 mm
20:22 17.3 °C 12.2 °C 1015.8 hPa NNW 20.9 km/h 25.7 km/h 72 % 0 mm
20:27 17.2 °C 12.3 °C 1015.8 hPa NW 11.3 km/h 25.7 km/h 73 % 0 mm
20:32 17.1 °C 12.2 °C 1016.1 hPa NW 8 km/h 25.7 km/h 73 % 0 mm
20:37 17 °C 12.1 °C 1016.1 hPa NNW 8 km/h 25.7 km/h 73 % 0 mm
20:42 16.9 °C 12.2 °C 1016.1 hPa WNW 11.3 km/h 20.9 km/h 74 % 0 mm
20:47 16.9 °C 12.2 °C 1016.1 hPa NW 8 km/h 19.3 km/h 74 % 0 mm
20:52 16.8 °C 12.1 °C 1016.1 hPa NNW 9.7 km/h 19.3 km/h 74 % 0 mm
20:57 16.8 °C 12.1 °C 1016.5 hPa NNW 11.3 km/h 19.3 km/h 74 % 0 mm
21:02 16.7 °C 12 °C 1016.5 hPa NW 4.8 km/h 20.9 km/h 74 % 0 mm
21:07 16.7 °C 12 °C 1016.5 hPa West 9.7 km/h 20.9 km/h 74 % 0 mm
21:12 16.6 °C 11.9 °C 1016.5 hPa NNW 9.7 km/h 20.9 km/h 74 % 0 mm
21:17 16.5 °C 11.8 °C 1016.8 hPa NNW 11.3 km/h 17.7 km/h 74 % 0 mm
21:22 16.4 °C 12 °C 1016.8 hPa WNW 8 km/h 19.3 km/h 75 % 0 mm
21:27 16.4 °C 11.5 °C 1016.8 hPa NW 16.1 km/h 19.3 km/h 73 % 0 mm
21:32 16.3 °C 11.2 °C 1017.2 hPa WNW 6.4 km/h 24.1 km/h 72 % 0 mm
21:37 16.3 °C 11 °C 1017.2 hPa NW 11.3 km/h 24.1 km/h 71 % 0 mm
21:42 16.2 °C 10.9 °C 1017.2 hPa NW 3.2 km/h 29 km/h 71 % 0 mm
21:47 16.2 °C 10.9 °C 1017.5 hPa NW 8 km/h 29 km/h 71 % 0 mm
21:52 16.2 °C 10.9 °C 1017.2 hPa WNW 3.2 km/h 29 km/h 71 % 0 mm
21:57 16.1 °C 10.8 °C 1017.5 hPa WNW 16.1 km/h 20.9 km/h 71 % 0 mm
22:01 16.1 °C 10.8 °C 1017.5 hPa North 1.6 km/h 20.9 km/h 71 % 0 mm
22:06 16.1 °C 10.8 °C 1017.5 hPa NW 3.2 km/h 20.9 km/h 71 % 0 mm
22:11 16 °C 11 °C 1017.5 hPa NNW 4.8 km/h 20.9 km/h 72 % 0 mm
22:16 16 °C 11 °C 1017.8 hPa NW 9.7 km/h 20.9 km/h 72 % 0 mm
22:21 15.9 °C 10.6 °C 1017.8 hPa NW 17.7 km/h 25.7 km/h 71 % 0 mm
22:26 16 °C 11 °C 1017.8 hPa NW 3.2 km/h 25.7 km/h 72 % 0 mm
22:31 16 °C 11 °C 1017.8 hPa WNW 16.1 km/h 25.7 km/h 72 % 0 mm
22:36 16 °C 11 °C 1017.8 hPa North 12.9 km/h 25.7 km/h 72 % 0 mm
22:41 16 °C 11 °C 1017.8 hPa NW 12.9 km/h 20.9 km/h 72 % 0 mm
22:46 15.9 °C 10.9 °C 1017.8 hPa NNW 11.3 km/h 20.9 km/h 72 % 0 mm
22:51 15.9 °C 10.9 °C 1017.8 hPa NW 6.4 km/h 20.9 km/h 72 % 0 mm
22:56 15.9 °C 10.9 °C 1017.8 hPa NW 8 km/h 25.7 km/h 72 % 0 mm
23:01 15.9 °C 10.9 °C 1017.8 hPa NNW 8 km/h 27.4 km/h 72 % 0 mm
23:06 15.9 °C 10.9 °C 1017.8 hPa WNW 4.8 km/h 27.4 km/h 72 % 0 mm
23:11 15.9 °C 10.9 °C 1017.8 hPa NW 3.2 km/h 27.4 km/h 72 % 0 mm
23:16 15.9 °C 10.9 °C 1017.8 hPa NW 14.5 km/h 24.1 km/h 72 % 0 mm
23:21 15.9 °C 10.9 °C 1017.8 hPa NNW 16.1 km/h 25.7 km/h 72 % 0 mm
23:26 15.9 °C 10.6 °C 1017.8 hPa NW 9.7 km/h 27.4 km/h 71 % 0 mm
23:31 15.9 °C 10.9 °C 1017.8 hPa NNW 8 km/h 27.4 km/h 72 % 0 mm
23:36 15.9 °C 10.6 °C 1018.2 hPa WNW 14.5 km/h 27.4 km/h 71 % 0 mm
23:41 15.8 °C 10.8 °C 1018.2 hPa NNW 4.8 km/h 27.4 km/h 72 % 0 mm
23:46 15.8 °C 10.6 °C 1018.2 hPa NW 8 km/h 27.4 km/h 71 % 0 mm
23:51 15.8 °C 10.3 °C 1018.2 hPa NNW 11.3 km/h 35.4 km/h 70 % 0 mm
23:56 15.8 °C 10.3 °C 1017.8 hPa North 16.1 km/h 35.4 km/h 70 % 0 mm
Spring, Texas: Villages of Bridgestone
Compliments of Weather Underground - 2.75 mb

Script developed by  Jim McMurry - jmcmurry@mwt.net Adapted for the template by  Wim van der Kuil - Leuven-Template.eu

You find our weather info also at:

UK Metoffice

WeatherCloud

Weather Underground

Mid-South Weather Network

AWEKAS

Citizen Weather Observer Program (CWOP)

HAMweather, WeatherForYou, PWS Weather

Equipment we use:

Weather-station
Davis Vantage Vue

Weather-program
Meteohub

Weather-server
Debian 7.9 x86 (Guest)

Provider
DreamHost

Davis Vantage Vue

Meteohub

Debian 7.9 x86 (Guest)

DreamHost